sensor_id;sensor_type;location;lat;lon;timestamp;pressure;altitude;pressure_sealevel;temperature;humidity
55456;BME280;63021;52.836;6.376;2023-08-24T00:02:00;101983.31;;;17.22;nan
55456;BME280;63021;52.836;6.376;2023-08-24T00:04:27;102007.00;;;17.19;nan
55456;BME280;63021;52.836;6.376;2023-08-24T00:06:52;101981.75;;;17.11;nan
55456;BME280;63021;52.836;6.376;2023-08-24T00:09:18;101986.44;;;17.09;nan
55456;BME280;63021;52.836;6.376;2023-08-24T00:11:44;101996.00;;;17.04;nan
55456;BME280;63021;52.836;6.376;2023-08-24T00:14:09;101974.97;;;16.99;nan
55456;BME280;63021;52.836;6.376;2023-08-24T00:16:35;101960.31;;;16.93;nan
55456;BME280;63021;52.836;6.376;2023-08-24T00:19:00;101963.19;;;16.92;nan
55456;BME280;63021;52.836;6.376;2023-08-24T00:21:26;101970.59;;;16.90;nan
55456;BME280;63021;52.836;6.376;2023-08-24T00:23:52;101967.19;;;16.88;nan
55456;BME280;63021;52.836;6.376;2023-08-24T00:26:18;101964.13;;;16.83;nan
55456;BME280;63021;52.836;6.376;2023-08-24T00:28:43;101943.94;;;16.78;nan
55456;BME280;63021;52.836;6.376;2023-08-24T00:31:09;101953.16;;;16.76;nan
55456;BME280;63021;52.836;6.376;2023-08-24T00:33:37;101948.94;;;16.73;nan
55456;BME280;63021;52.836;6.376;2023-08-24T00:36:04;101952.94;;;16.69;nan
55456;BME280;63021;52.836;6.376;2023-08-24T00:38:30;101932.94;;;16.63;nan
55456;BME280;63021;52.836;6.376;2023-08-24T00:40:56;101954.44;;;16.63;nan
55456;BME280;63021;52.836;6.376;2023-08-24T00:43:21;101943.84;;;16.62;nan
55456;BME280;63021;52.836;6.376;2023-08-24T00:45:56;83788.97;;;16.60;100.00
55456;BME280;63021;52.836;6.376;2023-08-24T00:48:21;101938.94;;;16.57;nan
55456;BME280;63021;52.836;6.376;2023-08-24T00:50:52;101940.97;;;16.55;nan
55456;BME280;63021;52.836;6.376;2023-08-24T00:53:18;101940.09;;;16.55;nan
55456;BME280;63021;52.836;6.376;2023-08-24T00:55:44;101934.88;;;16.53;nan
55456;BME280;63021;52.836;6.376;2023-08-24T00:58:10;101962.78;;;16.52;nan
55456;BME280;63021;52.836;6.376;2023-08-24T01:00:36;101927.00;;;16.52;nan
55456;BME280;63021;52.836;6.376;2023-08-24T01:03:03;101929.34;;;16.55;nan
55456;BME280;63021;52.836;6.376;2023-08-24T01:05:28;101913.56;;;16.52;nan
55456;BME280;63021;52.836;6.376;2023-08-24T01:07:54;101911.72;;;16.52;nan
55456;BME280;63021;52.836;6.376;2023-08-24T01:10:19;101909.03;;;16.52;nan
55456;BME280;63021;52.836;6.376;2023-08-24T01:13:09;101909.88;;;16.53;nan
55456;BME280;63021;52.836;6.376;2023-08-24T01:15:41;101913.38;;;16.53;nan
55456;BME280;63021;52.836;6.376;2023-08-24T01:18:12;101916.63;;;16.57;nan
55456;BME280;63021;52.836;6.376;2023-08-24T01:20:40;101908.72;;;16.55;nan
55456;BME280;63021;52.836;6.376;2023-08-24T01:23:23;101895.94;;;16.57;nan
55456;BME280;63021;52.836;6.376;2023-08-24T01:26:16;101893.78;;;16.61;nan
55456;BME280;63021;52.836;6.376;2023-08-24T01:28:41;101885.03;;;16.59;nan
55456;BME280;63021;52.836;6.376;2023-08-24T01:31:08;101884.88;;;16.60;nan
55456;BME280;63021;52.836;6.376;2023-08-24T01:33:34;101885.88;;;16.59;nan
55456;BME280;63021;52.836;6.376;2023-08-24T01:35:59;101902.00;;;16.59;nan
55456;BME280;63021;52.836;6.376;2023-08-24T01:38:25;101889.41;;;16.60;nan
55456;BME280;63021;52.836;6.376;2023-08-24T01:41:02;101880.34;;;16.61;nan
55456;BME280;63021;52.836;6.376;2023-08-24T01:43:32;101900.16;;;16.60;nan
55456;BME280;63021;52.836;6.376;2023-08-24T01:46:03;101904.38;;;16.62;nan
55456;BME280;63021;52.836;6.376;2023-08-24T01:48:30;101895.44;;;16.62;nan
55456;BME280;63021;52.836;6.376;2023-08-24T01:50:57;101905.91;;;16.65;nan
55456;BME280;63021;52.836;6.376;2023-08-24T01:53:25;101894.13;;;16.66;nan
55456;BME280;63021;52.836;6.376;2023-08-24T01:55:50;101897.50;;;16.68;nan
55456;BME280;63021;52.836;6.376;2023-08-24T01:58:16;101892.31;;;16.67;nan
55456;BME280;63021;52.836;6.376;2023-08-24T02:00:41;101896.50;;;16.69;nan
55456;BME280;63021;52.836;6.376;2023-08-24T02:03:07;101893.50;;;16.72;nan
55456;BME280;63021;52.836;6.376;2023-08-24T02:05:32;101895.16;;;16.73;nan
55456;BME280;63021;52.836;6.376;2023-08-24T02:07:58;101895.88;;;16.75;nan
55456;BME280;63021;52.836;6.376;2023-08-24T02:10:25;101889.63;;;16.75;nan
55456;BME280;63021;52.836;6.376;2023-08-24T02:12:51;101886.78;;;16.76;nan
55456;BME280;63021;52.836;6.376;2023-08-24T02:15:17;101889.47;;;16.76;nan
55456;BME280;63021;52.836;6.376;2023-08-24T02:17:43;101897.53;;;16.76;nan
55456;BME280;63021;52.836;6.376;2023-08-24T02:20:10;101905.47;;;16.78;nan
55456;BME280;63021;52.836;6.376;2023-08-24T02:22:37;101887.78;;;16.75;nan
55456;BME280;63021;52.836;6.376;2023-08-24T02:25:02;101894.84;;;16.76;nan
55456;BME280;63021;52.836;6.376;2023-08-24T02:27:30;101880.56;;;16.76;nan
55456;BME280;63021;52.836;6.376;2023-08-24T02:29:55;101889.63;;;16.75;nan
55456;BME280;63021;52.836;6.376;2023-08-24T02:32:21;101889.47;;;16.76;nan
55456;BME280;63021;52.836;6.376;2023-08-24T02:34:46;101898.56;;;16.75;nan
55456;BME280;63021;52.836;6.376;2023-08-24T02:37:12;101903.41;;;16.72;nan
55456;BME280;63021;52.836;6.376;2023-08-24T02:39:37;101890.13;;;16.70;nan
55456;BME280;63021;52.836;6.376;2023-08-24T02:42:02;101892.63;;;16.72;nan
55456;BME280;63021;52.836;6.376;2023-08-24T02:44:28;101896.19;;;16.72;nan
55456;BME280;63021;52.836;6.376;2023-08-24T02:46:54;101896.03;;;16.74;nan
55456;BME280;63021;52.836;6.376;2023-08-24T02:49:19;101886.44;;;16.71;nan
55456;BME280;63021;52.836;6.376;2023-08-24T02:51:46;101876.84;;;16.69;nan
55456;BME280;63021;52.836;6.376;2023-08-24T02:54:11;101893.50;;;16.72;nan
55456;BME280;63021;52.836;6.376;2023-08-24T02:56:38;101881.88;;;16.72;nan
55456;BME280;63021;52.836;6.376;2023-08-24T02:59:03;101880.06;;;16.72;nan
55456;BME280;63021;52.836;6.376;2023-08-24T03:01:29;101872.28;;;16.69;nan
55456;BME280;63021;52.836;6.376;2023-08-24T03:03:55;101874.69;;;16.72;nan
55456;BME280;63021;52.836;6.376;2023-08-24T03:06:20;101868.59;;;16.70;nan
55456;BME280;63021;52.836;6.376;2023-08-24T03:08:46;101862.22;;;16.71;nan
55456;BME280;63021;52.836;6.376;2023-08-24T03:11:11;101859.00;;;16.68;nan
55456;BME280;63021;52.836;6.376;2023-08-24T03:13:37;101854.50;;;16.68;nan
55456;BME280;63021;52.836;6.376;2023-08-24T03:16:04;101860.19;;;16.65;nan
55456;BME280;63021;52.836;6.376;2023-08-24T03:18:30;101861.19;;;16.64;nan
55456;BME280;63021;52.836;6.376;2023-08-24T03:20:56;101854.28;;;16.61;nan
55456;BME280;63021;52.836;6.376;2023-08-24T03:23:21;101868.72;;;16.60;nan
55456;BME280;63021;52.836;6.376;2023-08-24T03:25:47;101869.91;;;16.58;nan
55456;BME280;63021;52.836;6.376;2023-08-24T03:28:12;101865.53;;;16.57;nan
55456;BME280;63021;52.836;6.376;2023-08-24T03:30:46;101863.19;;;16.54;nan
55456;BME280;63021;52.836;6.376;2023-08-24T03:33:11;101857.09;;;16.52;nan
55456;BME280;63021;52.836;6.376;2023-08-24T03:35:37;101847.34;;;16.42;nan
55456;BME280;63021;52.836;6.376;2023-08-24T03:38:02;101849.16;;;16.42;nan
55456;BME280;63021;52.836;6.376;2023-08-24T03:40:29;101844.09;;;16.39;nan
55456;BME280;63021;52.836;6.376;2023-08-24T03:42:55;101853.03;;;16.39;nan
55456;BME280;63021;52.836;6.376;2023-08-24T03:45:21;101842.28;;;16.39;nan
55456;BME280;63021;52.836;6.376;2023-08-24T03:47:47;101841.59;;;16.37;nan
55456;BME280;63021;52.836;6.376;2023-08-24T03:50:13;101841.91;;;16.34;nan
55456;BME280;63021;52.836;6.376;2023-08-24T03:52:38;101850.47;;;16.30;nan
55456;BME280;63021;52.836;6.376;2023-08-24T03:55:06;101839.19;;;16.26;nan
55456;BME280;63021;52.836;6.376;2023-08-24T03:57:31;101841.19;;;16.24;nan
55456;BME280;63021;52.836;6.376;2023-08-24T03:59:57;101840.50;;;16.22;nan
55456;BME280;63021;52.836;6.376;2023-08-24T04:02:23;101839.00;;;16.19;nan
55456;BME280;63021;52.836;6.376;2023-08-24T04:04:48;101844.69;;;16.16;nan
55456;BME280;63021;52.836;6.376;2023-08-24T04:07:14;101850.50;;;16.11;nan
55456;BME280;63021;52.836;6.376;2023-08-24T04:09:40;101846.47;;;16.07;nan
55456;BME280;63021;52.836;6.376;2023-08-24T04:12:05;101843.44;;;16.02;nan
55456;BME280;63021;52.836;6.376;2023-08-24T04:14:31;101838.38;;;15.99;nan
55456;BME280;63021;52.836;6.376;2023-08-24T04:16:56;101834.31;;;15.95;nan
55456;BME280;63021;52.836;6.376;2023-08-24T04:19:22;101834.47;;;15.93;nan
55456;BME280;63021;52.836;6.376;2023-08-24T04:21:47;101829.09;;;15.93;nan
55456;BME280;63021;52.836;6.376;2023-08-24T04:24:13;101824.88;;;15.91;nan
55456;BME280;63021;52.836;6.376;2023-08-24T04:26:38;101818.84;;;15.89;nan
55456;BME280;63021;52.836;6.376;2023-08-24T04:29:03;101818.16;;;15.87;nan
55456;BME280;63021;52.836;6.376;2023-08-24T04:31:29;101826.19;;;15.87;nan
55456;BME280;63021;52.836;6.376;2023-08-24T04:33:54;101827.19;;;15.86;nan
55456;BME280;63021;52.836;6.376;2023-08-24T04:36:20;101841.63;;;15.85;100.00
55456;BME280;63021;52.836;6.376;2023-08-24T04:38:45;101841.63;;;15.85;nan
55456;BME280;63021;52.836;6.376;2023-08-24T04:41:10;101808.22;;;15.79;nan
55456;BME280;63021;52.836;6.376;2023-08-24T04:43:37;101802.69;;;15.81;nan
55456;BME280;63021;52.836;6.376;2023-08-24T04:46:03;101825.16;;;15.80;nan
55456;BME280;63021;52.836;6.376;2023-08-24T04:48:28;101806.47;;;15.78;nan
55456;BME280;63021;52.836;6.376;2023-08-24T04:50:59;101831.78;;;15.75;nan
55456;BME280;63021;52.836;6.376;2023-08-24T04:53:26;101801.75;;;15.72;nan
55456;BME280;63021;52.836;6.376;2023-08-24T04:55:51;101806.97;;;15.73;nan
55456;BME280;63021;52.836;6.376;2023-08-24T04:58:17;101808.44;;;15.68;nan
55456;BME280;63021;52.836;6.376;2023-08-24T05:00:43;101808.94;;;15.71;nan
55456;BME280;63021;52.836;6.376;2023-08-24T05:03:08;101816.16;;;15.71;nan
55456;BME280;63021;52.836;6.376;2023-08-24T05:05:35;67865.97;;;15.71;nan
55456;BME280;63021;52.836;6.376;2023-08-24T05:08:02;101801.06;;;15.70;nan
55456;BME280;63021;52.836;6.376;2023-08-24T05:10:32;101818.69;;;15.72;nan
55456;BME280;63021;52.836;6.376;2023-08-24T05:12:58;101820.38;;;15.73;nan
55456;BME280;63021;52.836;6.376;2023-08-24T05:15:24;101818.69;;;15.72;nan
55456;BME280;63021;52.836;6.376;2023-08-24T05:17:49;101825.75;;;15.73;nan
55456;BME280;63021;52.836;6.376;2023-08-24T05:20:16;101825.75;;;15.73;nan
55456;BME280;63021;52.836;6.376;2023-08-24T05:22:42;101832.50;;;15.77;nan
55456;BME280;63021;52.836;6.376;2023-08-24T05:25:07;101832.50;;;15.77;nan
55456;BME280;63021;52.836;6.376;2023-08-24T05:27:33;101823.84;;;15.84;nan
55456;BME280;63021;52.836;6.376;2023-08-24T05:29:58;101819.13;;;15.86;nan
55456;BME280;63021;52.836;6.376;2023-08-24T05:32:24;101825.88;;;15.90;nan
55456;BME280;63021;52.836;6.376;2023-08-24T05:34:49;101816.16;;;15.89;nan
55456;BME280;63021;52.836;6.376;2023-08-24T05:37:15;101827.25;;;15.94;nan
55456;BME280;63021;52.836;6.376;2023-08-24T05:39:41;101810.16;;;15.95;nan
55456;BME280;63021;52.836;6.376;2023-08-24T05:42:07;101817.72;;;16.00;nan
55456;BME280;63021;52.836;6.376;2023-08-24T05:44:33;101817.06;;;16.06;nan
55456;BME280;63021;52.836;6.376;2023-08-24T05:46:58;101822.97;;;16.09;nan
55456;BME280;63021;52.836;6.376;2023-08-24T05:49:23;101815.28;;;16.15;nan
55456;BME280;63021;52.836;6.376;2023-08-24T05:51:50;101818.34;;;16.20;nan
55456;BME280;63021;52.836;6.376;2023-08-24T05:54:16;101816.53;;;16.28;nan
55456;BME280;63021;52.836;6.376;2023-08-24T05:56:47;101796.75;;;16.38;nan
55456;BME280;63021;52.836;6.376;2023-08-24T05:59:15;101793.91;;;16.48;nan
55456;BME280;63021;52.836;6.376;2023-08-24T06:01:41;101788.75;;;16.54;nan
55456;BME280;63021;52.836;6.376;2023-08-24T06:04:10;101789.97;;;16.68;nan
55456;BME280;63021;52.836;6.376;2023-08-24T06:06:36;101781.41;;;16.73;nan
55456;BME280;63021;52.836;6.376;2023-08-24T06:09:02;101794.22;;;16.87;nan
55456;BME280;63021;52.836;6.376;2023-08-24T06:11:30;101782.47;;;16.96;nan
55456;BME280;63021;52.836;6.376;2023-08-24T06:13:56;101779.78;;;17.05;nan
55456;BME280;63021;52.836;6.376;2023-08-24T06:16:21;101780.47;;;17.15;nan
55456;BME280;63021;52.836;6.376;2023-08-24T06:18:47;101797.63;;;17.22;nan
55456;BME280;63021;52.836;6.376;2023-08-24T06:21:12;101770.56;;;17.32;nan
55456;BME280;63021;52.836;6.376;2023-08-24T06:23:38;101757.94;;;17.41;nan
55456;BME280;63021;52.836;6.376;2023-08-24T06:26:04;101750.19;;;17.54;nan
55456;BME280;63021;52.836;6.376;2023-08-24T06:28:32;101753.88;;;17.61;nan
55456;BME280;63021;52.836;6.376;2023-08-24T06:31:00;101749.13;;;17.72;nan
55456;BME280;63021;52.836;6.376;2023-08-24T06:33:28;101752.31;;;17.75;nan
55456;BME280;63021;52.836;6.376;2023-08-24T06:35:57;101744.41;;;17.82;nan
55456;BME280;63021;52.836;6.376;2023-08-24T06:38:22;101740.34;;;17.86;nan
55456;BME280;63021;52.836;6.376;2023-08-24T06:40:48;101763.91;;;17.92;nan
55456;BME280;63021;52.836;6.376;2023-08-24T06:43:13;101735.63;;;17.96;nan
55456;BME280;63021;52.836;6.376;2023-08-24T06:45:39;101744.03;;;18.02;nan
55456;BME280;63021;52.836;6.376;2023-08-24T06:48:05;101736.25;;;18.07;nan
55456;BME280;63021;52.836;6.376;2023-08-24T06:50:32;101734.38;;;18.15;nan
55456;BME280;63021;52.836;6.376;2023-08-24T06:52:58;101734.50;;;18.22;nan
55456;BME280;63021;52.836;6.376;2023-08-24T06:55:23;101714.75;;;18.30;nan
55456;BME280;63021;52.836;6.376;2023-08-24T06:57:49;101713.69;;;18.39;nan
55456;BME280;63021;52.836;6.376;2023-08-24T07:00:18;101723.75;;;18.45;nan
55456;BME280;63021;52.836;6.376;2023-08-24T07:02:47;101698.41;;;18.55;nan
55456;BME280;63021;52.836;6.376;2023-08-24T07:05:12;101691.13;;;18.63;nan
55456;BME280;63021;52.836;6.376;2023-08-24T07:07:38;101684.66;;;18.73;nan
55456;BME280;63021;52.836;6.376;2023-08-24T07:10:04;101687.47;;;18.79;nan
55456;BME280;63021;52.836;6.376;2023-08-24T07:12:31;101673.09;;;18.87;nan
55456;BME280;63021;52.836;6.376;2023-08-24T07:14:57;101670.72;;;18.92;nan
55456;BME280;63021;52.836;6.376;2023-08-24T07:17:22;101665.03;;;19.02;nan
55456;BME280;63021;52.836;6.376;2023-08-24T07:19:47;101666.84;;;19.10;nan
55456;BME280;63021;52.836;6.376;2023-08-24T07:22:13;101682.78;;;19.19;nan
55456;BME280;63021;52.836;6.376;2023-08-24T07:24:39;101666.00;;;19.24;nan
55456;BME280;63021;52.836;6.376;2023-08-24T07:27:05;101670.09;;;19.35;nan
55456;BME280;63021;52.836;6.376;2023-08-24T07:29:30;101663.78;;;19.43;nan
55456;BME280;63021;52.836;6.376;2023-08-24T07:31:56;101657.47;;;19.50;nan
55456;BME280;63021;52.836;6.376;2023-08-24T07:34:21;101652.78;;;19.59;nan
55456;BME280;63021;52.836;6.376;2023-08-24T07:36:47;101649.00;;;19.68;nan
55456;BME280;63021;52.836;6.376;2023-08-24T07:39:14;101648.03;;;19.76;nan
55456;BME280;63021;52.836;6.376;2023-08-24T07:41:41;101646.91;;;19.85;nan
55456;BME280;63021;52.836;6.376;2023-08-24T07:44:07;101650.56;;;19.93;nan
55456;BME280;63021;52.836;6.376;2023-08-24T07:46:32;101650.81;;;19.98;nan
55456;BME280;63021;52.836;6.376;2023-08-24T07:48:58;101660.50;;;20.07;nan
55456;BME280;63021;52.836;6.376;2023-08-24T07:51:23;101657.03;;;20.13;nan
55456;BME280;63021;52.836;6.376;2023-08-24T07:53:49;101652.72;;;20.19;nan
55456;BME280;63021;52.836;6.376;2023-08-24T07:56:17;101650.28;;;20.24;nan
55456;BME280;63021;52.836;6.376;2023-08-24T07:58:43;101659.75;;;20.35;nan
55456;BME280;63021;52.836;6.376;2023-08-24T08:01:08;101665.25;;;20.41;nan
55456;BME280;63021;52.836;6.376;2023-08-24T08:03:37;101668.88;;;20.49;nan
55456;BME280;63021;52.836;6.376;2023-08-24T08:06:02;101660.78;;;20.55;nan
55456;BME280;63021;52.836;6.376;2023-08-24T08:08:31;101655.25;;;20.64;nan
55456;BME280;63021;52.836;6.376;2023-08-24T08:10:59;101647.44;;;20.69;nan
55456;BME280;63021;52.836;6.376;2023-08-24T08:13:25;101650.00;;;20.77;nan
55456;BME280;63021;52.836;6.376;2023-08-24T08:15:51;101641.47;;;20.80;nan
55456;BME280;63021;52.836;6.376;2023-08-24T08:18:17;101636.78;;;20.89;nan
55456;BME280;63021;52.836;6.376;2023-08-24T08:20:42;101643.91;;;20.97;nan
55456;BME280;63021;52.836;6.376;2023-08-24T08:23:08;101655.63;;;21.04;nan
55456;BME280;63021;52.836;6.376;2023-08-24T08:25:33;101663.59;;;21.12;nan
55456;BME280;63021;52.836;6.376;2023-08-24T08:27:58;101671.75;;;21.19;nan
55456;BME280;63021;52.836;6.376;2023-08-24T08:30:24;101649.75;;;21.28;nan
55456;BME280;63021;52.836;6.376;2023-08-24T08:32:49;101655.03;;;21.37;nan
55456;BME280;63021;52.836;6.376;2023-08-24T08:35:17;101658.59;;;21.44;nan
55456;BME280;63021;52.836;6.376;2023-08-24T08:37:42;101632.41;;;21.51;nan
55456;BME280;63021;52.836;6.376;2023-08-24T08:40:11;101623.28;;;21.59;nan
55456;BME280;63021;52.836;6.376;2023-08-24T08:42:37;101618.31;;;21.69;nan
55456;BME280;63021;52.836;6.376;2023-08-24T08:45:07;101615.44;;;21.77;nan
55456;BME280;63021;52.836;6.376;2023-08-24T08:47:34;101606.31;;;21.85;nan
55456;BME280;63021;52.836;6.376;2023-08-24T08:50:02;101603.84;;;21.97;nan
55456;BME280;63021;52.836;6.376;2023-08-24T08:52:29;101591.13;;;22.04;nan
55456;BME280;63021;52.836;6.376;2023-08-24T08:54:54;101594.47;;;22.13;nan
55456;BME280;63021;52.836;6.376;2023-08-24T08:57:22;101593.03;;;22.24;nan
55456;BME280;63021;52.836;6.376;2023-08-24T08:59:48;101593.03;;;22.30;nan
55456;BME280;63021;52.836;6.376;2023-08-24T09:02:19;101588.09;;;22.34;nan
55456;BME280;63021;52.836;6.376;2023-08-24T09:04:45;101605.41;;;22.46;nan
55456;BME280;63021;52.836;6.376;2023-08-24T09:07:13;101595.59;;;22.52;nan
55456;BME280;63021;52.836;6.376;2023-08-24T09:09:39;101600.81;;;22.60;nan
55456;BME280;63021;52.836;6.376;2023-08-24T09:12:05;101603.53;;;22.67;nan
55456;BME280;63021;52.836;6.376;2023-08-24T09:14:33;101592.66;;;22.74;nan
55456;BME280;63021;52.836;6.376;2023-08-24T09:16:59;101604.78;;;22.78;nan
55456;BME280;63021;52.836;6.376;2023-08-24T09:19:28;101611.25;;;22.83;nan
55456;BME280;63021;52.836;6.376;2023-08-24T09:21:57;101606.25;;;22.87;nan
55456;BME280;63021;52.836;6.376;2023-08-24T09:24:33;101605.59;;;22.92;nan
55456;BME280;63021;52.836;6.376;2023-08-24T09:27:04;101599.53;;;22.96;nan
55456;BME280;63021;52.836;6.376;2023-08-24T09:29:38;101590.16;;;22.99;nan
55456;BME280;63021;52.836;6.376;2023-08-24T09:32:07;101582.59;;;23.01;nan
55456;BME280;63021;52.836;6.376;2023-08-24T09:34:33;101572.59;;;23.01;nan
55456;BME280;63021;52.836;6.376;2023-08-24T09:36:58;101558.16;;;23.01;nan
55456;BME280;63021;52.836;6.376;2023-08-24T09:39:24;101555.88;;;23.05;nan
55456;BME280;63021;52.836;6.376;2023-08-24T09:41:50;101549.38;;;23.06;nan
55456;BME280;63021;52.836;6.376;2023-08-24T09:44:17;101548.75;;;23.04;nan
55456;BME280;63021;52.836;6.376;2023-08-24T09:46:43;101553.75;;;23.07;nan
55456;BME280;63021;52.836;6.376;2023-08-24T09:49:12;101555.44;;;23.08;nan
55456;BME280;63021;52.836;6.376;2023-08-24T09:51:39;101548.13;;;23.08;nan
55456;BME280;63021;52.836;6.376;2023-08-24T09:54:10;101556.47;;;23.07;nan
55456;BME280;63021;52.836;6.376;2023-08-24T09:56:41;101544.78;;;23.06;nan
55456;BME280;63021;52.836;6.376;2023-08-24T09:59:14;101547.28;;;23.08;nan
55456;BME280;63021;52.836;6.376;2023-08-24T10:01:46;101561.31;;;23.05;nan
55456;BME280;63021;52.836;6.376;2023-08-24T10:04:17;101540.41;;;23.05;nan
55456;BME280;63021;52.836;6.376;2023-08-24T10:06:48;101538.50;;;23.06;nan
55456;BME280;63021;52.836;6.376;2023-08-24T10:09:27;101523.28;;;23.05;nan
55456;BME280;63021;52.836;6.376;2023-08-24T10:11:58;101508.84;;;23.04;nan
55456;BME280;63021;52.836;6.376;2023-08-24T10:17:10;101493.84;;;23.01;nan
55456;BME280;63021;52.836;6.376;2023-08-24T10:19:36;101486.09;;;22.98;nan
55456;BME280;63021;52.836;6.376;2023-08-24T10:22:02;101473.59;;;22.97;nan
55456;BME280;63021;52.836;6.376;2023-08-24T10:24:29;101473.81;;;22.96;nan
55456;BME280;63021;52.836;6.376;2023-08-24T10:26:56;101479.25;;;22.96;nan
55456;BME280;63021;52.836;6.376;2023-08-24T10:29:23;101479.47;;;22.94;nan
55456;BME280;63021;52.836;6.376;2023-08-24T10:31:49;101482.78;;;22.96;nan
55456;BME280;63021;52.836;6.376;2023-08-24T10:34:16;101484.69;;;22.96;nan
55456;BME280;63021;52.836;6.376;2023-08-24T10:36:41;101475.91;;;22.94;nan
55456;BME280;63021;52.836;6.376;2023-08-24T10:39:07;101490.94;;;22.96;nan
55456;BME280;63021;52.836;6.376;2023-08-24T10:41:51;101494.69;;;22.95;nan
55456;BME280;63021;52.836;6.376;2023-08-24T10:44:37;101470.69;;;22.92;nan
55456;BME280;63021;52.836;6.376;2023-08-24T10:47:13;101481.09;;;22.95;nan
55456;BME280;63021;52.836;6.376;2023-08-24T10:49:58;101471.72;;;22.98;nan
55456;BME280;63021;52.836;6.376;2023-08-24T10:52:37;101454.38;;;22.99;nan
55456;BME280;63021;52.836;6.376;2023-08-24T10:55:21;101445.59;;;22.97;nan
55456;BME280;63021;52.836;6.376;2023-08-24T10:58:00;101454.97;;;23.01;nan
55456;BME280;63021;52.836;6.376;2023-08-24T11:00:29;101449.34;;;23.02;nan
55456;BME280;63021;52.836;6.376;2023-08-24T11:02:56;101451.00;;;23.04;nan
55456;BME280;63021;52.836;6.376;2023-08-24T11:05:26;101453.06;;;23.08;nan
55456;BME280;63021;52.836;6.376;2023-08-24T11:08:00;101461.84;;;23.10;nan
55456;BME280;63021;52.836;6.376;2023-08-24T11:13:18;101462.91;;;23.16;nan
55456;BME280;63021;52.836;6.376;2023-08-24T11:15:48;101463.06;;;23.21;nan
55456;BME280;63021;52.836;6.376;2023-08-24T11:18:28;101457.66;;;23.21;nan
55456;BME280;63021;52.836;6.376;2023-08-24T11:20:56;101462.41;;;23.26;nan
55456;BME280;63021;52.836;6.376;2023-08-24T11:23:24;101457.19;;;23.31;nan
55456;BME280;63021;52.836;6.376;2023-08-24T11:25:52;101438.78;;;23.33;nan
55456;BME280;63021;52.836;6.376;2023-08-24T11:28:25;101452.31;;;23.40;nan
55456;BME280;63021;52.836;6.376;2023-08-24T11:30:52;101436.22;;;23.45;nan
55456;BME280;63021;52.836;6.376;2023-08-24T11:33:34;101441.38;;;23.53;nan
55456;BME280;63021;52.836;6.376;2023-08-24T11:36:01;101428.41;;;23.55;nan
55456;BME280;63021;52.836;6.376;2023-08-24T11:38:41;101438.81;;;23.65;nan
55456;BME280;63021;52.836;6.376;2023-08-24T11:41:15;101427.03;;;23.71;nan
55456;BME280;63021;52.836;6.376;2023-08-24T11:43:42;101438.09;;;23.76;nan
55456;BME280;63021;52.836;6.376;2023-08-24T11:46:07;101444.34;;;23.77;nan
55456;BME280;63021;52.836;6.376;2023-08-24T11:48:33;101438.03;;;23.83;nan
55456;BME280;63021;52.836;6.376;2023-08-24T11:50:59;101437.38;;;23.87;nan
55456;BME280;63021;52.836;6.376;2023-08-24T11:53:25;101435.06;;;23.91;nan
55456;BME280;63021;52.836;6.376;2023-08-24T11:55:54;101430.63;;;23.97;nan
55456;BME280;63021;52.836;6.376;2023-08-24T11:58:20;101430.59;;;24.03;nan
55456;BME280;63021;52.836;6.376;2023-08-24T12:00:46;101425.28;;;24.09;nan
55456;BME280;63021;52.836;6.376;2023-08-24T12:03:12;101415.88;;;24.11;nan
55456;BME280;63021;52.836;6.376;2023-08-24T12:05:38;101420.63;;;24.16;nan
55456;BME280;63021;52.836;6.376;2023-08-24T12:08:11;101416.63;;;24.18;nan
55456;BME280;63021;52.836;6.376;2023-08-24T12:10:42;101425.16;;;24.22;nan
55456;BME280;63021;52.836;6.376;2023-08-24T12:13:07;101411.72;;;24.27;nan
55456;BME280;63021;52.836;6.376;2023-08-24T12:15:36;101410.22;;;24.31;nan
55456;BME280;63021;52.836;6.376;2023-08-24T12:18:12;101390.97;;;24.33;nan
55456;BME280;63021;52.836;6.376;2023-08-24T12:20:40;101392.63;;;24.34;nan
55456;BME280;63021;52.836;6.376;2023-08-24T12:23:06;101394.03;;;24.36;nan
55456;BME280;63021;52.836;6.376;2023-08-24T12:25:36;101382.13;;;24.37;nan
55456;BME280;63021;52.836;6.376;2023-08-24T12:28:15;101366.41;;;24.39;nan
55456;BME280;63021;52.836;6.376;2023-08-24T12:30:49;101370.53;;;24.42;nan
55456;BME280;63021;52.836;6.376;2023-08-24T12:33:21;101354.22;;;24.42;nan
55456;BME280;63021;52.836;6.376;2023-08-24T12:35:47;101355.28;;;24.41;nan
55456;BME280;63021;52.836;6.376;2023-08-24T12:38:13;101362.38;;;24.42;nan
55456;BME280;63021;52.836;6.376;2023-08-24T12:40:38;101350.22;;;24.45;nan
55456;BME280;63021;52.836;6.376;2023-08-24T12:43:04;101350.84;;;24.47;nan
55456;BME280;63021;52.836;6.376;2023-08-24T12:45:31;101348.25;;;24.52;nan
55456;BME280;63021;52.836;6.376;2023-08-24T12:47:56;101344.00;;;24.56;nan
55456;BME280;63021;52.836;6.376;2023-08-24T12:50:22;101336.25;;;24.60;nan
55456;BME280;63021;52.836;6.376;2023-08-24T12:52:47;101338.28;;;24.64;nan
55456;BME280;63021;52.836;6.376;2023-08-24T12:55:12;101334.06;;;24.68;nan
55456;BME280;63021;52.836;6.376;2023-08-24T12:57:38;101330.63;;;24.73;nan
55456;BME280;63021;52.836;6.376;2023-08-24T13:00:03;101334.34;;;24.79;nan
55456;BME280;63021;52.836;6.376;2023-08-24T13:02:33;101336.34;;;24.83;nan
55456;BME280;63021;52.836;6.376;2023-08-24T13:04:58;101319.31;;;24.88;nan
55456;BME280;63021;52.836;6.376;2023-08-24T13:07:26;101324.91;;;24.93;nan
55456;BME280;63021;52.836;6.376;2023-08-24T13:09:51;101318.41;;;24.94;nan
55456;BME280;63021;52.836;6.376;2023-08-24T13:12:17;101317.47;;;25.00;nan
55456;BME280;63021;52.836;6.376;2023-08-24T13:14:42;101306.94;;;25.04;nan
55456;BME280;63021;52.836;6.376;2023-08-24T13:17:08;101315.50;;;25.07;nan